XBJCS MMLT-MMAA
Flight info
| Callsign | XBJCS |
|---|---|
| Flight time | 1h 52m |
| Altitude | 45000 |
| Route | DASVU DCT OLESI UT6 PVR UJ9 COL DCT AVURO AVURO1B |
| Aircraft | C750/M-SBDE3FGHRWXY/S |
Departure
| Time | 2026-04-26 04:27 |
|---|---|
| Airport | Loreto International Airport (MMLT) |
Arrival
| Time | 2026-04-26 06:20 |
|---|---|
| Airport | General Juan N. Álvarez International Airport (MMAA) |
| Time | Latitude | Longitude | Altitude | Speed | Heading |
|---|---|---|---|---|---|
| 2026-04-26 04:21 | 25.99284 | -111.35221 | 43 ft | 0 kts | 35° |
| 2026-04-26 04:23 | 25.99304 | -111.35200 | 43 ft | 7 kts | 42° |
| 2026-04-26 04:24 | 25.99340 | -111.35153 | 43 ft | 9 kts | 64° |
| 2026-04-26 04:24 | 25.99355 | -111.35077 | 44 ft | 11 kts | 84° |
| 2026-04-26 04:24 | 25.99355 | -111.34985 | 44 ft | 12 kts | 87° |
| 2026-04-26 04:24 | 25.99374 | -111.34898 | 44 ft | 11 kts | 49° |
| 2026-04-26 04:25 | 25.99451 | -111.34897 | 44 ft | 12 kts | 352° |
| 2026-04-26 04:25 | 25.99543 | -111.34909 | 44 ft | 15 kts | 353° |
| 2026-04-26 04:25 | 25.99651 | -111.34927 | 43 ft | 17 kts | 350° |
| 2026-04-26 04:25 | 25.99772 | -111.34948 | 44 ft | 18 kts | 352° |
| 2026-04-26 04:26 | 25.99888 | -111.34990 | 44 ft | 19 kts | 309° |
| 2026-04-26 04:26 | 25.99961 | -111.34980 | 44 ft | 15 kts | 96° |
| 2026-04-26 04:26 | 25.99917 | -111.34957 | 44 ft | 0 kts | 180° |
| 2026-04-26 04:26 | 25.99781 | -111.34939 | 44 ft | 49 kts | 175° |
| 2026-04-26 04:27 | 25.99220 | -111.34863 | 43 ft | 110 kts | 173° |
| 2026-04-26 04:27 | 25.98356 | -111.34749 | 111 ft | 131 kts | 171° |
| 2026-04-26 04:27 | 25.97473 | -111.34550 | 499 ft | 134 kts | 159° |
| 2026-04-26 04:27 | 25.96626 | -111.34004 | 1081 ft | 147 kts | 142° |
| 2026-04-26 04:28 | 25.95887 | -111.33183 | 1771 ft | 153 kts | 131° |
| 2026-04-26 04:28 | 25.95162 | -111.32295 | 2512 ft | 157 kts | 133° |
| 2026-04-26 04:28 | 25.94409 | -111.31404 | 3258 ft | 162 kts | 135° |
| 2026-04-26 04:28 | 25.93623 | -111.30475 | 3986 ft | 171 kts | 136° |
| 2026-04-26 04:29 | 25.92787 | -111.29488 | 4786 ft | 178 kts | 136° |
| 2026-04-26 04:29 | 25.91927 | -111.28470 | 5575 ft | 182 kts | 135° |
| 2026-04-26 04:29 | 25.91048 | -111.27428 | 6353 ft | 186 kts | 135° |
| 2026-04-26 04:29 | 25.90150 | -111.26365 | 7125 ft | 191 kts | 134° |
| 2026-04-26 04:30 | 25.89235 | -111.25282 | 7934 ft | 196 kts | 134° |
| 2026-04-26 04:30 | 25.88292 | -111.24161 | 8787 ft | 200 kts | 134° |
| 2026-04-26 04:30 | 25.87339 | -111.23029 | 9641 ft | 201 kts | 134° |
| 2026-04-26 04:30 | 25.86388 | -111.21901 | 10484 ft | 200 kts | 136° |
| 2026-04-26 04:31 | 25.85439 | -111.20774 | 11294 ft | 199 kts | 137° |
| 2026-04-26 04:31 | 25.84505 | -111.19666 | 12070 ft | 199 kts | 139° |
| 2026-04-26 04:31 | 25.83561 | -111.18546 | 12833 ft | 198 kts | 139° |
| 2026-04-26 04:31 | 25.82618 | -111.17431 | 13572 ft | 198 kts | 140° |
| 2026-04-26 04:32 | 25.81675 | -111.16314 | 14298 ft | 198 kts | 140° |
| 2026-04-26 04:32 | 25.80734 | -111.15202 | 14995 ft | 198 kts | 140° |
| 2026-04-26 04:32 | 25.79792 | -111.14088 | 15680 ft | 198 kts | 141° |
| 2026-04-26 04:32 | 25.78848 | -111.12971 | 16344 ft | 198 kts | 141° |
| 2026-04-26 04:33 | 25.77901 | -111.11851 | 17003 ft | 199 kts | 141° |
| 2026-04-26 04:33 | 25.76949 | -111.10726 | 17658 ft | 200 kts | 141° |
| 2026-04-26 04:33 | 25.75997 | -111.09599 | 18304 ft | 200 kts | 142° |
| 2026-04-26 04:33 | 25.75053 | -111.08484 | 18924 ft | 202 kts | 142° |
| 2026-04-26 04:34 | 25.74085 | -111.07342 | 19546 ft | 203 kts | 142° |
| 2026-04-26 04:34 | 25.73111 | -111.06191 | 20160 ft | 205 kts | 143° |
| 2026-04-26 04:34 | 25.72128 | -111.05029 | 20761 ft | 207 kts | 143° |
| 2026-04-26 04:34 | 25.71138 | -111.03858 | 21366 ft | 208 kts | 143° |
| 2026-04-26 04:35 | 25.70139 | -111.02680 | 21963 ft | 210 kts | 144° |
| 2026-04-26 04:35 | 25.69135 | -111.01494 | 22495 ft | 215 kts | 144° |
| 2026-04-26 04:35 | 25.68058 | -111.00244 | 22658 ft | 241 kts | 144° |
| 2026-04-26 04:35 | 25.66834 | -110.98817 | 22811 ft | 268 kts | 142° |
| 2026-04-26 04:36 | 25.65492 | -110.97228 | 22989 ft | 295 kts | 141° |
| 2026-04-26 04:36 | 25.64024 | -110.95485 | 23160 ft | 320 kts | 141° |
| 2026-04-26 04:36 | 25.62461 | -110.93638 | 23289 ft | 345 kts | 140° |
| 2026-04-26 04:36 | 25.60743 | -110.91616 | 23362 ft | 372 kts | 140° |
| 2026-04-26 04:37 | 25.58902 | -110.89450 | 23414 ft | 397 kts | 139° |
| 2026-04-26 04:37 | 25.56979 | -110.87181 | 23459 ft | 420 kts | 139° |
| 2026-04-26 04:37 | 25.54924 | -110.84756 | 23489 ft | 441 kts | 139° |
| 2026-04-26 04:37 | 25.52781 | -110.82232 | 23690 ft | 455 kts | 139° |
| 2026-04-26 04:38 | 25.50608 | -110.79674 | 24355 ft | 457 kts | 139° |
| 2026-04-26 04:38 | 25.48415 | -110.77100 | 24906 ft | 461 kts | 139° |
| 2026-04-26 04:38 | 25.46194 | -110.74499 | 25489 ft | 466 kts | 139° |
| 2026-04-26 04:38 | 25.43955 | -110.71873 | 26058 ft | 471 kts | 139° |
| 2026-04-26 04:39 | 25.41730 | -110.69263 | 26663 ft | 473 kts | 139° |
| 2026-04-26 04:39 | 25.39452 | -110.66604 | 27156 ft | 478 kts | 139° |
| 2026-04-26 04:39 | 25.37153 | -110.63911 | 27652 ft | 483 kts | 139° |
| 2026-04-26 04:39 | 25.34837 | -110.61191 | 28159 ft | 486 kts | 139° |
| 2026-04-26 04:40 | 25.32503 | -110.58457 | 28646 ft | 490 kts | 139° |
| 2026-04-26 04:40 | 25.30179 | -110.55745 | 29109 ft | 493 kts | 139° |
| 2026-04-26 04:40 | 25.27817 | -110.52960 | 29539 ft | 499 kts | 138° |
| 2026-04-26 04:40 | 25.25648 | -110.49910 | 29941 ft | 507 kts | 132° |
| 2026-04-26 04:41 | 25.23548 | -110.46776 | 30387 ft | 509 kts | 132° |
| 2026-04-26 04:41 | 25.21378 | -110.43681 | 30755 ft | 512 kts | 134° |
| 2026-04-26 04:41 | 25.19135 | -110.40607 | 31261 ft | 512 kts | 135° |
| 2026-04-26 04:41 | 25.16933 | -110.37524 | 31850 ft | 512 kts | 134° |
| 2026-04-26 04:42 | 25.14777 | -110.34390 | 32368 ft | 512 kts | 133° |
| 2026-04-26 04:42 | 25.12627 | -110.31249 | 32900 ft | 512 kts | 133° |
| 2026-04-26 04:42 | 25.10449 | -110.28150 | 33431 ft | 511 kts | 134° |
| 2026-04-26 04:42 | 25.08275 | -110.25115 | 33931 ft | 511 kts | 134° |
| 2026-04-26 04:43 | 25.06086 | -110.22032 | 34443 ft | 511 kts | 134° |
| 2026-04-26 04:43 | 25.03913 | -110.18915 | 34949 ft | 512 kts | 134° |
| 2026-04-26 04:43 | 25.01748 | -110.15800 | 35466 ft | 511 kts | 134° |
| 2026-04-26 04:43 | 24.99563 | -110.12700 | 35979 ft | 511 kts | 135° |
| 2026-04-26 04:44 | 24.97366 | -110.09614 | 36472 ft | 510 kts | 135° |
| 2026-04-26 04:44 | 24.95176 | -110.06523 | 36989 ft | 510 kts | 135° |
| 2026-04-26 04:44 | 24.93037 | -110.03473 | 37548 ft | 508 kts | 135° |
| 2026-04-26 04:44 | 24.90879 | -110.00394 | 38117 ft | 506 kts | 135° |
| 2026-04-26 04:45 | 24.88716 | -109.97339 | 38688 ft | 504 kts | 135° |
| 2026-04-26 04:45 | 24.86544 | -109.94291 | 38906 ft | 510 kts | 135° |
| 2026-04-26 04:45 | 24.84330 | -109.91180 | 38905 ft | 522 kts | 135° |
| 2026-04-26 04:45 | 24.82075 | -109.87983 | 38910 ft | 533 kts | 135° |
| 2026-04-26 04:46 | 24.79818 | -109.84773 | 38922 ft | 543 kts | 135° |
| 2026-04-26 04:46 | 24.75079 | -109.78101 | 38918 ft | 560 kts | 135° |
| 2026-04-26 04:47 | 24.70282 | -109.71345 | 38922 ft | 564 kts | 134° |
| 2026-04-26 04:47 | 24.65430 | -109.64510 | 38919 ft | 565 kts | 135° |
| 2026-04-26 04:48 | 24.58154 | -109.54308 | 38915 ft | 567 kts | 134° |
| 2026-04-26 04:48 | 24.53316 | -109.47527 | 38914 ft | 566 kts | 135° |
| 2026-04-26 04:49 | 24.48430 | -109.40698 | 38915 ft | 567 kts | 134° |
| 2026-04-26 04:49 | 24.43558 | -109.33878 | 38914 ft | 566 kts | 135° |
| 2026-04-26 04:50 | 24.38692 | -109.27103 | 38915 ft | 566 kts | 135° |
| 2026-04-26 04:50 | 24.33837 | -109.20333 | 38915 ft | 567 kts | 134° |
| 2026-04-26 04:51 | 24.28941 | -109.13511 | 38912 ft | 566 kts | 135° |
| 2026-04-26 04:51 | 24.24079 | -109.06769 | 38914 ft | 566 kts | 135° |
| 2026-04-26 04:52 | 24.19191 | -108.99975 | 38914 ft | 566 kts | 135° |
| 2026-04-26 04:52 | 24.14332 | -108.93251 | 38905 ft | 566 kts | 135° |
| 2026-04-26 04:53 | 24.09449 | -108.86494 | 38907 ft | 565 kts | 135° |
| 2026-04-26 04:53 | 24.04584 | -108.79766 | 38905 ft | 566 kts | 135° |
| 2026-04-26 04:54 | 23.99672 | -108.72994 | 38907 ft | 566 kts | 135° |
| 2026-04-26 04:54 | 23.94804 | -108.66278 | 38906 ft | 562 kts | 134° |
| 2026-04-26 04:55 | 23.89921 | -108.59566 | 38907 ft | 563 kts | 134° |
| 2026-04-26 04:55 | 23.85031 | -108.52842 | 38908 ft | 564 kts | 134° |
| 2026-04-26 04:56 | 23.80177 | -108.46176 | 38909 ft | 564 kts | 135° |
| 2026-04-26 04:56 | 23.75269 | -108.39459 | 38909 ft | 565 kts | 134° |
| 2026-04-26 04:57 | 23.70364 | -108.32734 | 38910 ft | 565 kts | 134° |
| 2026-04-26 04:57 | 23.65470 | -108.26046 | 38909 ft | 565 kts | 135° |
| 2026-04-26 04:58 | 23.60494 | -108.19479 | 38888 ft | 559 kts | 140° |
| 2026-04-26 04:58 | 23.54815 | -108.13727 | 38903 ft | 555 kts | 144° |
| 2026-04-26 04:59 | 23.49323 | -108.07827 | 38906 ft | 558 kts | 141° |
| 2026-04-26 04:59 | 23.43732 | -108.01962 | 38909 ft | 554 kts | 144° |
| 2026-04-26 05:00 | 23.38127 | -107.96245 | 38910 ft | 557 kts | 142° |
| 2026-04-26 05:00 | 23.32569 | -107.90332 | 38905 ft | 556 kts | 142° |
| 2026-04-26 05:01 | 23.26923 | -107.84555 | 38908 ft | 557 kts | 143° |
| 2026-04-26 05:01 | 23.21354 | -107.78745 | 38910 ft | 557 kts | 142° |
| 2026-04-26 05:02 | 23.15767 | -107.72934 | 38904 ft | 555 kts | 143° |
| 2026-04-26 05:02 | 23.10134 | -107.67145 | 38906 ft | 556 kts | 142° |
| 2026-04-26 05:03 | 23.04583 | -107.61366 | 38908 ft | 556 kts | 142° |
| 2026-04-26 05:03 | 22.98941 | -107.55562 | 38908 ft | 556 kts | 142° |
| 2026-04-26 05:04 | 22.93361 | -107.49803 | 38901 ft | 556 kts | 142° |
| 2026-04-26 05:04 | 22.87754 | -107.44014 | 38898 ft | 554 kts | 142° |
| 2026-04-26 05:05 | 22.82161 | -107.38278 | 38894 ft | 556 kts | 142° |
| 2026-04-26 05:05 | 22.76554 | -107.32498 | 38890 ft | 555 kts | 142° |
| 2026-04-26 05:06 | 22.70983 | -107.26785 | 38891 ft | 555 kts | 142° |
| 2026-04-26 05:06 | 22.65359 | -107.21023 | 38892 ft | 555 kts | 142° |
| 2026-04-26 05:07 | 22.59736 | -107.15253 | 38891 ft | 555 kts | 142° |
| 2026-04-26 05:07 | 22.54147 | -107.09546 | 38893 ft | 555 kts | 142° |
| 2026-04-26 05:08 | 22.48525 | -107.03797 | 38892 ft | 556 kts | 142° |
| 2026-04-26 05:08 | 22.42893 | -106.98049 | 38889 ft | 555 kts | 142° |
| 2026-04-26 05:09 | 22.37281 | -106.92330 | 38893 ft | 556 kts | 142° |
| 2026-04-26 05:09 | 22.31675 | -106.86618 | 38891 ft | 556 kts | 142° |
| 2026-04-26 05:10 | 22.26016 | -106.80868 | 38890 ft | 556 kts | 142° |
| 2026-04-26 05:10 | 22.20406 | -106.75167 | 38893 ft | 557 kts | 141° |
| 2026-04-26 05:11 | 22.14757 | -106.69435 | 38894 ft | 557 kts | 141° |
| 2026-04-26 05:11 | 22.10053 | -106.64669 | 38894 ft | 557 kts | 141° |
| 2026-04-26 05:12 | 22.04392 | -106.58934 | 38894 ft | 558 kts | 141° |
| 2026-04-26 05:12 | 21.98762 | -106.53233 | 38897 ft | 557 kts | 141° |
| 2026-04-26 05:13 | 21.93092 | -106.47512 | 38897 ft | 556 kts | 141° |
| 2026-04-26 05:13 | 21.87478 | -106.41839 | 38908 ft | 556 kts | 141° |
| 2026-04-26 05:14 | 21.81807 | -106.36122 | 38910 ft | 558 kts | 141° |
| 2026-04-26 05:14 | 21.76149 | -106.30426 | 38920 ft | 557 kts | 141° |
| 2026-04-26 05:15 | 21.70502 | -106.24739 | 38964 ft | 557 kts | 141° |
| 2026-04-26 05:15 | 21.64836 | -106.19054 | 38976 ft | 557 kts | 141° |
| 2026-04-26 05:16 | 21.59169 | -106.13360 | 38983 ft | 557 kts | 141° |
| 2026-04-26 05:16 | 21.53536 | -106.07711 | 38983 ft | 557 kts | 141° |
| 2026-04-26 05:17 | 21.47861 | -106.02036 | 38965 ft | 557 kts | 141° |
| 2026-04-26 05:17 | 21.42184 | -105.96345 | 38927 ft | 558 kts | 141° |
| 2026-04-26 05:18 | 21.36531 | -105.90708 | 38929 ft | 558 kts | 141° |
| 2026-04-26 05:18 | 21.30826 | -105.85008 | 38924 ft | 558 kts | 141° |
| 2026-04-26 05:19 | 21.25165 | -105.79362 | 38927 ft | 558 kts | 141° |
| 2026-04-26 05:19 | 21.19461 | -105.73696 | 38928 ft | 559 kts | 141° |
| 2026-04-26 05:20 | 21.13751 | -105.68021 | 38928 ft | 559 kts | 141° |
| 2026-04-26 05:20 | 21.08073 | -105.62389 | 38915 ft | 558 kts | 141° |
| 2026-04-26 05:21 | 21.02356 | -105.56721 | 38917 ft | 558 kts | 140° |
| 2026-04-26 05:21 | 20.96680 | -105.51095 | 38910 ft | 559 kts | 140° |
| 2026-04-26 05:22 | 20.90961 | -105.45439 | 38906 ft | 558 kts | 140° |
| 2026-04-26 05:22 | 20.85260 | -105.39788 | 38907 ft | 559 kts | 140° |
| 2026-04-26 05:23 | 20.79577 | -105.34181 | 38909 ft | 558 kts | 140° |
| 2026-04-26 05:23 | 20.73869 | -105.28539 | 38911 ft | 558 kts | 140° |
| 2026-04-26 05:24 | 20.68223 | -105.22833 | 38897 ft | 560 kts | 136° |
| 2026-04-26 05:24 | 20.63053 | -105.16576 | 38899 ft | 561 kts | 133° |
| 2026-04-26 05:25 | 20.57862 | -105.10424 | 38899 ft | 559 kts | 136° |
| 2026-04-26 05:25 | 20.52619 | -105.04314 | 38899 ft | 560 kts | 134° |
| 2026-04-26 05:26 | 20.47431 | -104.98055 | 38904 ft | 560 kts | 134° |
| 2026-04-26 05:26 | 20.42217 | -104.91966 | 38901 ft | 559 kts | 135° |
| 2026-04-26 05:27 | 20.37005 | -104.85781 | 38906 ft | 561 kts | 134° |
| 2026-04-26 05:27 | 20.31777 | -104.79592 | 38903 ft | 561 kts | 135° |
| 2026-04-26 05:28 | 20.26553 | -104.73469 | 38905 ft | 560 kts | 134° |
| 2026-04-26 05:28 | 20.21337 | -104.67291 | 38914 ft | 559 kts | 134° |
| 2026-04-26 05:29 | 20.16100 | -104.61145 | 38911 ft | 558 kts | 134° |
| 2026-04-26 05:29 | 20.10904 | -104.55040 | 38913 ft | 558 kts | 134° |
| 2026-04-26 05:30 | 20.05677 | -104.48894 | 38910 ft | 558 kts | 134° |
| 2026-04-26 05:30 | 20.00475 | -104.42806 | 38930 ft | 558 kts | 134° |
| 2026-04-26 05:31 | 19.95290 | -104.36721 | 38931 ft | 556 kts | 134° |
| 2026-04-26 05:31 | 19.90080 | -104.30628 | 38931 ft | 557 kts | 134° |
| 2026-04-26 05:32 | 19.84860 | -104.24529 | 38924 ft | 556 kts | 134° |
| 2026-04-26 05:32 | 19.79682 | -104.18474 | 38925 ft | 556 kts | 134° |
| 2026-04-26 05:33 | 19.74471 | -104.12396 | 38925 ft | 557 kts | 134° |
| 2026-04-26 05:33 | 19.69265 | -104.06322 | 38927 ft | 555 kts | 134° |
| 2026-04-26 05:34 | 19.64063 | -104.00272 | 38956 ft | 555 kts | 134° |
| 2026-04-26 05:34 | 19.58835 | -103.94192 | 38969 ft | 556 kts | 134° |
| 2026-04-26 05:35 | 19.53642 | -103.88158 | 38977 ft | 556 kts | 134° |
| 2026-04-26 05:35 | 19.48438 | -103.82122 | 38984 ft | 555 kts | 134° |
| 2026-04-26 05:36 | 19.43221 | -103.76072 | 38994 ft | 555 kts | 134° |
| 2026-04-26 05:36 | 19.38015 | -103.70047 | 38994 ft | 554 kts | 134° |
| 2026-04-26 05:37 | 19.32797 | -103.64007 | 39009 ft | 555 kts | 134° |
| 2026-04-26 05:37 | 19.27604 | -103.57977 | 39002 ft | 554 kts | 132° |
| 2026-04-26 05:38 | 19.22993 | -103.51492 | 39004 ft | 554 kts | 126° |
| 2026-04-26 05:38 | 19.18510 | -103.44841 | 39001 ft | 554 kts | 128° |
| 2026-04-26 05:39 | 19.13824 | -103.38363 | 39011 ft | 554 kts | 127° |
| 2026-04-26 05:39 | 19.09333 | -103.31789 | 39007 ft | 554 kts | 126° |
| 2026-04-26 05:40 | 19.04736 | -103.25257 | 39011 ft | 553 kts | 128° |
| 2026-04-26 05:40 | 19.00164 | -103.18766 | 39006 ft | 553 kts | 127° |
| 2026-04-26 05:41 | 18.95615 | -103.12200 | 39012 ft | 552 kts | 127° |
| 2026-04-26 05:41 | 18.91005 | -103.05694 | 39000 ft | 552 kts | 127° |
| 2026-04-26 05:42 | 18.86440 | -102.99159 | 39004 ft | 552 kts | 127° |
| 2026-04-26 05:42 | 18.81883 | -102.92677 | 39001 ft | 551 kts | 127° |
| 2026-04-26 05:43 | 18.77288 | -102.86170 | 39006 ft | 551 kts | 127° |
| 2026-04-26 05:43 | 18.72742 | -102.79688 | 39001 ft | 552 kts | 127° |
| 2026-04-26 05:44 | 18.68152 | -102.73200 | 39001 ft | 550 kts | 127° |
| 2026-04-26 05:44 | 18.63601 | -102.66744 | 39002 ft | 550 kts | 127° |
| 2026-04-26 05:45 | 18.59021 | -102.60258 | 39012 ft | 550 kts | 127° |
| 2026-04-26 05:45 | 18.54434 | -102.53786 | 39006 ft | 549 kts | 127° |
| 2026-04-26 05:46 | 18.49893 | -102.47357 | 39001 ft | 549 kts | 127° |
| 2026-04-26 05:46 | 18.45320 | -102.40915 | 38957 ft | 549 kts | 127° |
| 2026-04-26 05:47 | 18.40806 | -102.34550 | 38925 ft | 519 kts | 127° |
| 2026-04-26 05:47 | 18.38702 | -102.31579 | 38817 ft | 492 kts | 127° |
| 2026-04-26 05:47 | 18.36701 | -102.28760 | 38669 ft | 479 kts | 127° |
| 2026-04-26 05:48 | 18.34690 | -102.25940 | 38520 ft | 481 kts | 127° |
| 2026-04-26 05:48 | 18.32664 | -102.23094 | 38391 ft | 484 kts | 127° |
| 2026-04-26 05:48 | 18.30663 | -102.20276 | 38274 ft | 485 kts | 127° |
| 2026-04-26 05:48 | 18.28637 | -102.17423 | 38174 ft | 485 kts | 127° |
| 2026-04-26 05:49 | 18.26626 | -102.14600 | 38071 ft | 485 kts | 127° |
| 2026-04-26 05:49 | 18.22570 | -102.08912 | 37876 ft | 484 kts | 127° |
| 2026-04-26 05:50 | 18.18546 | -102.03264 | 37685 ft | 484 kts | 127° |
| 2026-04-26 05:50 | 18.14494 | -101.97588 | 37505 ft | 484 kts | 127° |
| 2026-04-26 05:51 | 18.10458 | -101.91935 | 37336 ft | 484 kts | 127° |
| 2026-04-26 05:51 | 18.06421 | -101.86289 | 37172 ft | 483 kts | 127° |
| 2026-04-26 05:52 | 18.02393 | -101.80660 | 37019 ft | 484 kts | 127° |
| 2026-04-26 05:52 | 17.98361 | -101.75025 | 36880 ft | 484 kts | 127° |
| 2026-04-26 05:53 | 17.94303 | -101.69365 | 36745 ft | 483 kts | 127° |
| 2026-04-26 05:53 | 17.90263 | -101.63733 | 36616 ft | 483 kts | 127° |
| 2026-04-26 05:54 | 17.86236 | -101.58124 | 36480 ft | 483 kts | 127° |
| 2026-04-26 05:54 | 17.82188 | -101.52489 | 36356 ft | 487 kts | 127° |
| 2026-04-26 05:55 | 17.78071 | -101.46767 | 36228 ft | 492 kts | 127° |
| 2026-04-26 05:55 | 17.73970 | -101.41065 | 36115 ft | 492 kts | 127° |
| 2026-04-26 05:56 | 17.69838 | -101.35331 | 36005 ft | 490 kts | 127° |
| 2026-04-26 05:56 | 17.65743 | -101.29652 | 35903 ft | 491 kts | 127° |
| 2026-04-26 05:57 | 17.61605 | -101.23917 | 35806 ft | 491 kts | 127° |
| 2026-04-26 05:57 | 17.57506 | -101.18243 | 35723 ft | 490 kts | 127° |
| 2026-04-26 05:58 | 17.53376 | -101.12525 | 35647 ft | 490 kts | 127° |
| 2026-04-26 05:58 | 17.49245 | -101.06819 | 34984 ft | 495 kts | 127° |
| 2026-04-26 05:58 | 17.47163 | -101.03943 | 34322 ft | 493 kts | 127° |
| 2026-04-26 05:59 | 17.45789 | -101.02045 | 33885 ft | 493 kts | 127° |
| 2026-04-26 05:59 | 17.43038 | -100.98251 | 33008 ft | 493 kts | 127° |
| 2026-04-26 05:59 | 17.41659 | -100.96350 | 32571 ft | 492 kts | 127° |
| 2026-04-26 05:59 | 17.39587 | -100.93490 | 31907 ft | 492 kts | 127° |
| 2026-04-26 06:00 | 17.36835 | -100.89695 | 31040 ft | 494 kts | 127° |
| 2026-04-26 06:00 | 17.35421 | -100.87747 | 30584 ft | 495 kts | 127° |
| 2026-04-26 06:00 | 17.33364 | -100.84915 | 29929 ft | 492 kts | 127° |
| 2026-04-26 06:00 | 17.30634 | -100.81155 | 29050 ft | 484 kts | 127° |
| 2026-04-26 06:01 | 17.29258 | -100.79260 | 28618 ft | 480 kts | 127° |
| 2026-04-26 06:01 | 17.27267 | -100.76520 | 27988 ft | 475 kts | 127° |
| 2026-04-26 06:01 | 17.25258 | -100.73755 | 27351 ft | 472 kts | 127° |
| 2026-04-26 06:01 | 17.23278 | -100.71034 | 26722 ft | 467 kts | 127° |
| 2026-04-26 06:02 | 17.21579 | -100.68206 | 26093 ft | 461 kts | 117° |
| 2026-04-26 06:02 | 17.20159 | -100.65188 | 25475 ft | 458 kts | 115° |
| 2026-04-26 06:02 | 17.18799 | -100.62227 | 24872 ft | 453 kts | 116° |
| 2026-04-26 06:02 | 17.17337 | -100.59309 | 24260 ft | 449 kts | 118° |
| 2026-04-26 06:03 | 17.15845 | -100.56453 | 23671 ft | 445 kts | 117° |
| 2026-04-26 06:03 | 17.14423 | -100.53620 | 23081 ft | 440 kts | 116° |
| 2026-04-26 06:03 | 17.13067 | -100.50773 | 22489 ft | 434 kts | 115° |
| 2026-04-26 06:03 | 17.11725 | -100.47952 | 21911 ft | 429 kts | 116° |
| 2026-04-26 06:04 | 17.10362 | -100.45189 | 21337 ft | 423 kts | 117° |
| 2026-04-26 06:04 | 17.08997 | -100.42475 | 20770 ft | 419 kts | 117° |
| 2026-04-26 06:04 | 17.07661 | -100.39783 | 20210 ft | 414 kts | 116° |
| 2026-04-26 06:04 | 17.06377 | -100.37151 | 19664 ft | 409 kts | 116° |
| 2026-04-26 06:05 | 17.05084 | -100.34499 | 19115 ft | 404 kts | 116° |
| 2026-04-26 06:05 | 17.03802 | -100.31894 | 18576 ft | 400 kts | 116° |
| 2026-04-26 06:05 | 17.02539 | -100.29347 | 18056 ft | 396 kts | 116° |
| 2026-04-26 06:05 | 17.01278 | -100.26799 | 17605 ft | 392 kts | 116° |
| 2026-04-26 06:06 | 17.00030 | -100.24259 | 17081 ft | 390 kts | 116° |
| 2026-04-26 06:06 | 16.98913 | -100.21734 | 16546 ft | 386 kts | 109° |
| 2026-04-26 06:06 | 16.98086 | -100.19074 | 16053 ft | 384 kts | 106° |
| 2026-04-26 06:06 | 16.97331 | -100.16403 | 15533 ft | 381 kts | 106° |
| 2026-04-26 06:07 | 16.96529 | -100.13767 | 15025 ft | 379 kts | 108° |
| 2026-04-26 06:07 | 16.95685 | -100.11198 | 14525 ft | 376 kts | 108° |
| 2026-04-26 06:07 | 16.94849 | -100.08616 | 14023 ft | 374 kts | 108° |
| 2026-04-26 06:07 | 16.94051 | -100.06024 | 13520 ft | 371 kts | 107° |
| 2026-04-26 06:08 | 16.93280 | -100.03477 | 13020 ft | 369 kts | 107° |
| 2026-04-26 06:08 | 16.92493 | -100.00924 | 12531 ft | 367 kts | 108° |
| 2026-04-26 06:08 | 16.91699 | -99.98398 | 12039 ft | 366 kts | 108° |
| 2026-04-26 06:08 | 16.90903 | -99.95870 | 11550 ft | 363 kts | 108° |
| 2026-04-26 06:09 | 16.90137 | -99.93417 | 11074 ft | 348 kts | 108° |
| 2026-04-26 06:09 | 16.89413 | -99.91089 | 10616 ft | 326 kts | 108° |
| 2026-04-26 06:09 | 16.88726 | -99.88898 | 10192 ft | 308 kts | 108° |
| 2026-04-26 06:09 | 16.88073 | -99.86818 | 9786 ft | 302 kts | 108° |
| 2026-04-26 06:10 | 16.87421 | -99.84725 | 9387 ft | 301 kts | 108° |
| 2026-04-26 06:10 | 16.86784 | -99.82669 | 8990 ft | 297 kts | 108° |
| 2026-04-26 06:10 | 16.86156 | -99.80651 | 8597 ft | 284 kts | 108° |
| 2026-04-26 06:10 | 16.85552 | -99.78724 | 8208 ft | 274 kts | 108° |
| 2026-04-26 06:11 | 16.84974 | -99.76880 | 7821 ft | 265 kts | 108° |
| 2026-04-26 06:11 | 16.84407 | -99.75066 | 7450 ft | 260 kts | 108° |
| 2026-04-26 06:11 | 16.83846 | -99.73275 | 7103 ft | 259 kts | 108° |
| 2026-04-26 06:11 | 16.83285 | -99.71479 | 6759 ft | 257 kts | 108° |
| 2026-04-26 06:12 | 16.82740 | -99.69741 | 6428 ft | 252 kts | 108° |
| 2026-04-26 06:12 | 16.82203 | -99.68026 | 6100 ft | 242 kts | 108° |
| 2026-04-26 06:12 | 16.81690 | -99.66384 | 5770 ft | 235 kts | 108° |
| 2026-04-26 06:12 | 16.81184 | -99.64777 | 5466 ft | 229 kts | 108° |
| 2026-04-26 06:13 | 16.80695 | -99.63218 | 5180 ft | 228 kts | 108° |
| 2026-04-26 06:13 | 16.80203 | -99.61644 | 4903 ft | 227 kts | 108° |
| 2026-04-26 06:13 | 16.79715 | -99.60091 | 4627 ft | 226 kts | 108° |
| 2026-04-26 06:13 | 16.79217 | -99.58535 | 4361 ft | 225 kts | 110° |
| 2026-04-26 06:14 | 16.78294 | -99.57243 | 3977 ft | 224 kts | 145° |
| 2026-04-26 06:14 | 16.76859 | -99.56722 | 3705 ft | 218 kts | 178° |
| 2026-04-26 06:14 | 16.75394 | -99.57018 | 3488 ft | 214 kts | 199° |
| 2026-04-26 06:14 | 16.74030 | -99.57501 | 3262 ft | 200 kts | 200° |
| 2026-04-26 06:15 | 16.72743 | -99.57949 | 3018 ft | 194 kts | 201° |
| 2026-04-26 06:15 | 16.71677 | -99.58753 | 2733 ft | 189 kts | 233° |
| 2026-04-26 06:15 | 16.71164 | -99.59995 | 2508 ft | 187 kts | 262° |
| 2026-04-26 06:15 | 16.71293 | -99.61301 | 2279 ft | 176 kts | 287° |
| 2026-04-26 06:16 | 16.71694 | -99.62505 | 2079 ft | 168 kts | 288° |
| 2026-04-26 06:16 | 16.72030 | -99.63578 | 1870 ft | 143 kts | 287° |
| 2026-04-26 06:16 | 16.72318 | -99.64515 | 1702 ft | 130 kts | 287° |
| 2026-04-26 06:16 | 16.72590 | -99.65407 | 1548 ft | 128 kts | 287° |
| 2026-04-26 06:17 | 16.72862 | -99.66278 | 1401 ft | 127 kts | 288° |
| 2026-04-26 06:17 | 16.73135 | -99.67155 | 1288 ft | 124 kts | 288° |
| 2026-04-26 06:17 | 16.73402 | -99.68008 | 1298 ft | 124 kts | 288° |
| 2026-04-26 06:17 | 16.73684 | -99.68870 | 1143 ft | 133 kts | 289° |
| 2026-04-26 06:18 | 16.73961 | -99.69790 | 806 ft | 131 kts | 288° |
| 2026-04-26 06:18 | 16.74234 | -99.70641 | 689 ft | 123 kts | 287° |
| 2026-04-26 06:18 | 16.74489 | -99.71511 | 510 ft | 122 kts | 288° |
| 2026-04-26 06:18 | 16.74763 | -99.72367 | 305 ft | 125 kts | 287° |
| 2026-04-26 06:19 | 16.75030 | -99.73223 | 100 ft | 124 kts | 289° |
| 2026-04-26 06:19 | 16.75295 | -99.74050 | 19 ft | 114 kts | 286° |
| 2026-04-26 06:19 | 16.75505 | -99.74720 | 17 ft | 68 kts | 288° |
| 2026-04-26 06:19 | 16.75622 | -99.75089 | 16 ft | 51 kts | 289° |
| 2026-04-26 06:20 | 16.75724 | -99.75395 | 19 ft | 33 kts | 289° |
| 2026-04-26 06:20 | 16.75778 | -99.75599 | 22 ft | 15 kts | 306° |
| 2026-04-26 06:20 | 16.75841 | -99.75592 | 20 ft | 10 kts | 63° |
| 2026-04-26 06:20 | 16.75869 | -99.75523 | 19 ft | 11 kts | 66° |
| 2026-04-26 06:21 | 16.75901 | -99.75447 | 18 ft | 12 kts | 66° |
| 2026-04-26 06:21 | 16.75965 | -99.75407 | 18 ft | 11 kts | 18° |
| 2026-04-26 06:21 | 16.76034 | -99.75384 | 18 ft | 11 kts | 16° |
| 2026-04-26 06:21 | 16.76090 | -99.75367 | 18 ft | 0 kts | 17° |